createdAt,value
2018-02-19T09:16:26.527Z,9.60
2018-02-19T09:18:54.065Z,12.00
2018-02-19T09:21:22.331Z,12.60
2018-02-19T09:23:50.616Z,12.80
2018-02-19T09:26:18.132Z,12.80
2018-02-19T09:28:45.639Z,13.10
2018-02-19T09:31:13.167Z,13.20
2018-02-19T09:33:40.688Z,13.00
2018-02-19T09:36:08.219Z,13.00
2018-02-19T09:38:35.736Z,12.60
2018-02-19T11:30:20.025Z,12.40
2018-02-19T11:32:47.537Z,12.50
2018-02-19T11:35:15.059Z,12.60
2018-02-19T11:37:42.575Z,12.60
2018-02-19T11:40:10.868Z,12.70
2018-02-19T11:42:38.385Z,12.70
2018-02-19T11:45:05.929Z,12.80
2018-02-19T11:47:33.443Z,12.90
2018-02-19T11:50:00.975Z,12.90
2018-02-19T11:52:28.496Z,13.00
2018-02-19T11:54:56.024Z,13.00
2018-02-19T11:57:23.617Z,13.00
2018-02-19T11:59:51.145Z,13.00
2018-02-19T12:02:18.655Z,13.10
2018-02-19T12:04:46.167Z,13.10
2018-02-19T12:07:13.691Z,13.10
2018-02-19T12:09:41.208Z,13.10
2018-02-19T12:12:08.735Z,13.10
2018-02-19T12:14:37.016Z,13.20
2018-02-19T12:17:05.312Z,13.20
2018-02-19T12:19:32.824Z,13.20
2018-02-19T12:22:00.352Z,13.20
2018-02-19T12:24:27.859Z,13.30
2018-02-19T12:26:56.173Z,13.40
2018-02-19T12:29:23.687Z,13.30
2018-02-19T12:31:51.207Z,13.40
2018-02-19T12:34:18.713Z,13.40
2018-02-19T12:36:47.028Z,13.40
2018-02-19T12:39:14.715Z,13.40
2018-02-19T12:41:42.264Z,13.40
2018-02-19T12:44:10.641Z,13.40
2018-02-19T12:46:38.145Z,13.40
2018-02-19T12:49:05.675Z,13.40
2018-02-19T12:51:33.188Z,13.40
2018-02-19T12:54:01.476Z,13.40
2018-02-19T12:56:28.984Z,13.30
2018-02-19T12:58:56.504Z,13.40
2018-02-19T13:01:24.007Z,13.40
2018-02-19T13:03:51.534Z,13.40
2018-02-19T13:06:19.039Z,13.40
2018-02-19T13:08:46.567Z,13.50
2018-02-19T13:11:14.080Z,13.40
2018-02-19T13:13:42.392Z,13.50
2018-02-19T13:16:09.895Z,13.50
2018-02-19T13:18:37.404Z,13.60
2018-02-19T13:21:04.940Z,13.80
2018-02-19T13:23:33.224Z,13.90
2018-02-19T13:26:01.511Z,14.10
2018-02-19T13:28:29.023Z,14.10
2018-02-19T13:30:56.564Z,14.10
2018-02-19T13:33:24.083Z,14.20
2018-02-19T13:35:52.372Z,14.20
2018-02-19T13:38:19.897Z,14.10
2018-02-19T13:40:47.419Z,14.20
2018-02-19T13:43:14.935Z,14.30
2018-02-19T13:45:43.227Z,14.30
2018-02-19T13:48:10.739Z,14.30
2018-02-19T13:50:38.264Z,14.30
2018-02-19T13:53:05.776Z,14.40
2018-02-19T13:55:34.076Z,14.40
2018-02-19T13:58:01.592Z,14.30
2018-02-19T14:00:29.143Z,14.40
2018-02-19T14:02:56.647Z,14.50
2018-02-19T14:05:24.924Z,14.40
2018-02-19T14:07:53.211Z,14.40
2018-02-19T14:10:20.722Z,14.40
2018-02-19T14:12:48.255Z,14.40
2018-02-19T14:15:15.771Z,14.40
2018-02-19T14:17:44.064Z,14.50
2018-02-19T14:20:12.343Z,14.60
2018-02-19T14:22:40.631Z,14.80
2018-02-19T14:25:08.140Z,14.70
2018-02-19T14:27:35.672Z,14.70
2018-02-19T14:30:03.175Z,14.80
2018-02-19T14:32:30.720Z,14.80
2018-02-19T14:34:58.224Z,14.70
2018-02-19T14:37:25.741Z,14.60
2018-02-19T14:39:53.266Z,14.60
2018-02-19T14:42:20.781Z,14.50
2018-02-19T14:44:49.076Z,14.40
2018-02-19T14:47:17.356Z,14.40
2018-02-19T14:49:45.639Z,14.40
2018-02-19T14:52:13.152Z,14.30
2018-02-19T14:54:40.679Z,14.30
2018-02-19T14:57:08.200Z,14.20
2018-02-19T14:59:36.492Z,14.10
2018-02-19T15:02:04.035Z,13.70
2018-02-19T15:04:32.327Z,13.90
2018-02-19T15:07:00.610Z,13.80
2018-02-19T15:09:28.139Z,13.80
2018-02-19T15:11:55.653Z,13.70
2018-02-19T15:14:23.159Z,13.60
2018-02-19T15:16:50.683Z,13.60
2018-02-19T15:19:18.187Z,13.60
2018-02-19T15:21:46.482Z,13.80
2018-02-19T15:24:13.991Z,13.80
2018-02-19T15:26:41.520Z,13.80
2018-02-19T15:29:09.028Z,13.80
2018-02-19T15:31:36.562Z,13.70
2018-02-19T15:34:04.075Z,13.70
2018-02-19T15:36:32.367Z,13.60
2018-02-19T15:38:59.880Z,13.60
2018-02-19T15:41:27.419Z,13.50
2018-02-19T15:43:54.944Z,13.50
2018-02-19T15:46:22.497Z,13.40
2018-02-19T16:08:41.678Z,12.90
2018-02-19T16:11:09.200Z,12.90
2018-02-19T16:13:36.728Z,12.80
2018-02-19T16:16:04.249Z,12.80
2018-02-19T16:18:31.779Z,12.70
2018-02-19T16:20:59.288Z,12.60
2018-02-19T16:23:27.612Z,12.50
2018-02-19T16:25:55.116Z,12.40
2018-02-19T16:28:22.639Z,12.50
2018-02-19T16:30:50.163Z,12.40
2018-02-19T16:33:17.675Z,12.30
